Loma Alta, Texas
Current Conditions -  °F | °C
As of 1:53 AM on Friday 28 Nov 2014 (Local Time) from KDRT Reporting Station
Clear Clear  
Wind Chill: 44°   Ceiling: Unl
Heat Index: 46°   Visibility: 10mi
Dew Point: 38°   Wind: 5mph
Humidity: 73%   Direction: 90°E
Pressure: 30.33"   Gusts: NA
Location:  29.92°N, 100.87°W
Report Text: KDRT 280753Z AUTO 09004KT 10SM CLR 08/03 A3033 RMK AO2 SLP263 T00780033
Loading
Personal Weather Stations






























Interactive Weather Map New forecast layout! Learn more

10-Day Weather Forecast

Advertisements
Track Severe Weather on mobile